createdAt,value
2019-03-30T00:01:01.034Z,6.47
2019-03-30T00:03:39.210Z,6.87
2019-03-30T00:06:14.910Z,6.70
2019-03-30T00:08:50.216Z,6.62
2019-03-30T00:11:24.974Z,6.90
2019-03-30T00:13:59.486Z,6.33
2019-03-30T00:16:35.059Z,6.13
2019-03-30T00:19:09.936Z,6.47
2019-03-30T00:21:45.098Z,6.70
2019-03-30T00:24:21.451Z,5.90
2019-03-30T00:26:57.450Z,6.63
2019-03-30T00:29:38.390Z,6.60
2019-03-30T00:32:14.170Z,6.47
2019-03-30T00:34:55.859Z,6.63
2019-03-30T00:37:30.664Z,6.60
2019-03-30T00:40:07.358Z,6.50
2019-03-30T00:42:42.265Z,6.53
2019-03-30T00:45:18.547Z,6.30
2019-03-30T00:47:53.790Z,7.13
2019-03-30T00:50:28.455Z,6.77
2019-03-30T00:53:03.536Z,6.90
2019-03-30T00:55:39.847Z,7.55
2019-03-30T00:58:16.123Z,6.60
2019-03-30T01:00:51.839Z,6.20
2019-03-30T01:03:27.152Z,6.53
2019-03-30T01:06:02.229Z,5.97
2019-03-30T01:08:38.448Z,5.97
2019-03-30T01:11:15.473Z,6.10
2019-03-30T01:13:50.825Z,6.10
2019-03-30T01:16:25.873Z,6.53
2019-03-30T01:19:01.414Z,7.00
2019-03-30T01:21:36.883Z,7.40
2019-03-30T01:24:11.893Z,6.20
2019-03-30T01:26:46.620Z,7.73
2019-03-30T01:29:21.790Z,7.77
2019-03-30T01:31:56.823Z,7.90
2019-03-30T01:34:31.643Z,8.17
2019-03-30T01:37:06.704Z,7.90
2019-03-30T01:39:42.508Z,7.80
2019-03-30T01:42:17.148Z,8.10
2019-03-30T01:44:51.708Z,7.73
2019-03-30T01:47:26.287Z,7.63
2019-03-30T01:50:16.215Z,7.30
2019-03-30T01:52:52.546Z,7.43
2019-03-30T01:55:27.699Z,7.18
2019-03-30T01:58:02.992Z,7.47
2019-03-30T02:00:38.945Z,7.13
2019-03-30T02:03:13.395Z,7.03
2019-03-30T02:05:48.646Z,7.23
2019-03-30T02:08:23.294Z,7.70
2019-03-30T02:10:58.305Z,7.40
2019-03-30T02:13:32.982Z,7.68
2019-03-30T02:16:07.607Z,6.87
2019-03-30T02:18:43.710Z,6.30
2019-03-30T02:21:19.047Z,7.97
2019-03-30T02:23:53.886Z,7.27
2019-03-30T02:26:30.233Z,7.13
2019-03-30T02:29:05.042Z,7.25
2019-03-30T02:31:40.950Z,6.07
2019-03-30T02:34:17.023Z,6.13
2019-03-30T02:36:52.260Z,7.40
2019-03-30T02:39:27.201Z,6.93
2019-03-30T02:42:02.026Z,6.83
2019-03-30T02:44:36.650Z,7.60
2019-03-30T02:47:12.127Z,7.90
2019-03-30T02:49:47.206Z,6.90
2019-03-30T02:52:22.770Z,7.78
2019-03-30T02:54:59.890Z,6.47
2019-03-30T02:57:34.446Z,7.13
2019-03-30T03:00:14.585Z,7.20
2019-03-30T03:02:49.660Z,7.13
2019-03-30T03:05:24.431Z,7.33
2019-03-30T03:07:59.356Z,7.60
2019-03-30T03:10:35.296Z,7.23
2019-03-30T03:13:10.147Z,7.03
2019-03-30T03:15:44.935Z,7.57
2019-03-30T03:18:19.514Z,7.87
2019-03-30T03:21:07.571Z,8.25
2019-03-30T03:23:44.424Z,7.37
2019-03-30T03:26:19.170Z,7.77
2019-03-30T03:28:54.507Z,8.03
2019-03-30T03:31:29.366Z,8.40
2019-03-30T03:34:04.342Z,8.97
2019-03-30T03:36:39.119Z,8.33
2019-03-30T03:39:13.717Z,8.03
2019-03-30T03:41:48.733Z,8.90
2019-03-30T03:44:24.548Z,8.40
2019-03-30T03:46:59.541Z,8.07
2019-03-30T03:49:34.830Z,8.87
2019-03-30T03:52:09.791Z,9.27
2019-03-30T03:54:46.311Z,8.37
2019-03-30T03:57:29.041Z,9.10
2019-03-30T04:00:08.967Z,8.57
2019-03-30T04:02:45.596Z,9.13
2019-03-30T04:05:23.807Z,9.03
2019-03-30T04:08:05.056Z,8.20
2019-03-30T04:10:46.244Z,8.33
2019-03-30T04:13:25.427Z,8.63
2019-03-30T04:15:59.945Z,7.70
2019-03-30T04:18:35.114Z,8.70
2019-03-30T04:21:10.438Z,8.73
2019-03-30T04:23:44.867Z,8.83
2019-03-30T04:26:19.923Z,9.37
2019-03-30T04:28:54.525Z,9.97
2019-03-30T04:31:29.655Z,8.73
2019-03-30T04:34:04.814Z,9.03
2019-03-30T04:36:39.642Z,9.17
2019-03-30T04:39:14.664Z,9.63
2019-03-30T04:41:50.006Z,9.00
2019-03-30T04:44:24.648Z,8.73
2019-03-30T04:46:59.424Z,8.77
2019-03-30T04:49:34.464Z,9.30
2019-03-30T04:52:09.167Z,8.93
2019-03-30T04:54:43.715Z,8.77
2019-03-30T04:57:21.368Z,9.23
2019-03-30T04:59:56.257Z,8.67
2019-03-30T05:02:31.452Z,10.85
2019-03-30T05:05:06.974Z,9.93
2019-03-30T05:07:42.130Z,9.20
2019-03-30T05:10:17.042Z,9.70
2019-03-30T05:12:53.019Z,9.90
2019-03-30T05:15:27.538Z,9.77
2019-03-30T05:18:02.652Z,9.73
2019-03-30T05:20:37.686Z,10.63
2019-03-30T05:23:12.551Z,9.10
2019-03-30T05:25:47.300Z,10.33
2019-03-30T05:28:22.328Z,10.17
2019-03-30T05:30:59.351Z,9.77
2019-03-30T05:33:35.369Z,9.70
2019-03-30T05:36:10.394Z,10.23
2019-03-30T05:38:45.254Z,10.40
2019-03-30T05:41:20.244Z,9.87
2019-03-30T05:43:56.040Z,9.73
2019-03-30T05:46:31.198Z,10.37
2019-03-30T05:49:05.928Z,10.23
2019-03-30T05:51:40.805Z,10.30
2019-03-30T05:54:17.369Z,10.30
2019-03-30T05:56:52.480Z,11.10
2019-03-30T05:59:27.650Z,9.60
2019-03-30T06:02:02.368Z,9.47
2019-03-30T06:04:36.878Z,9.80
2019-03-30T06:07:12.830Z,10.03
2019-03-30T06:09:47.721Z,9.87
2019-03-30T06:12:22.495Z,9.40
2019-03-30T06:14:57.673Z,9.97
2019-03-30T06:17:32.275Z,10.10
2019-03-30T06:20:10.560Z,10.73
2019-03-30T06:22:45.329Z,10.13
2019-03-30T06:25:20.042Z,10.13
2019-03-30T06:27:56.183Z,9.97
2019-03-30T06:30:31.421Z,9.63
2019-03-30T06:33:07.675Z,9.80
2019-03-30T06:35:44.271Z,8.97
2019-03-30T06:38:19.971Z,9.20
2019-03-30T06:40:54.553Z,9.13
2019-03-30T06:43:29.492Z,9.43
2019-03-30T06:46:06.663Z,9.43
2019-03-30T06:48:41.214Z,10.90
2019-03-30T06:51:16.225Z,9.40
2019-03-30T06:53:50.929Z,9.70
2019-03-30T06:56:27.610Z,9.57
2019-03-30T06:59:04.134Z,8.90
2019-03-30T07:01:39.722Z,9.63
2019-03-30T07:04:15.563Z,9.37
2019-03-30T07:06:53.186Z,9.60
2019-03-30T07:09:32.572Z,10.40
2019-03-30T07:12:08.989Z,8.63
2019-03-30T07:14:51.560Z,8.57
2019-03-30T07:17:27.003Z,9.95
2019-03-30T07:20:19.827Z,9.17
2019-03-30T07:23:10.678Z,8.57
2019-03-30T07:25:48.201Z,8.57
2019-03-30T07:28:22.777Z,9.90
2019-03-30T07:30:58.066Z,8.70
2019-03-30T07:33:32.673Z,9.43
2019-03-30T07:36:07.518Z,9.10
2019-03-30T07:38:43.814Z,8.60
2019-03-30T07:41:21.311Z,9.30
2019-03-30T07:43:56.323Z,10.13
2019-03-30T07:46:31.375Z,8.63
2019-03-30T07:49:07.195Z,8.33
2019-03-30T07:51:42.281Z,9.13
2019-03-30T07:54:20.934Z,8.77
2019-03-30T07:57:05.384Z,8.47
2019-03-30T07:59:48.218Z,9.20
2019-03-30T08:02:24.425Z,8.40
2019-03-30T08:05:00.986Z,7.93
2019-03-30T08:07:37.951Z,8.97
2019-03-30T08:10:14.345Z,8.73
2019-03-30T08:12:50.414Z,8.40
2019-03-30T08:15:26.707Z,8.23
2019-03-30T08:18:03.731Z,8.20
2019-03-30T08:20:38.908Z,7.83
2019-03-30T08:23:14.341Z,8.07
2019-03-30T08:25:50.007Z,8.63
2019-03-30T08:28:25.170Z,7.77
2019-03-30T08:31:01.426Z,8.13
2019-03-30T08:33:36.175Z,8.93
2019-03-30T08:36:11.885Z,7.87
2019-03-30T08:38:47.668Z,8.57
2019-03-30T08:41:22.667Z,8.63
2019-03-30T08:43:59.148Z,8.98
2019-03-30T08:46:34.595Z,7.60
2019-03-30T08:49:09.405Z,6.93
2019-03-30T08:51:45.734Z,7.30
2019-03-30T08:54:20.714Z,7.68
2019-03-30T08:56:57.972Z,7.07
2019-03-30T08:59:34.122Z,7.53
2019-03-30T09:02:08.903Z,7.77
2019-03-30T09:04:43.862Z,7.40
2019-03-30T09:07:19.043Z,6.90
2019-03-30T09:09:53.701Z,7.37
2019-03-30T09:12:30.906Z,7.77
2019-03-30T09:15:09.891Z,7.03
2019-03-30T09:17:47.572Z,8.03
2019-03-30T09:20:26.132Z,7.73
2019-03-30T09:23:02.069Z,8.50
2019-03-30T09:25:36.775Z,7.73
2019-03-30T09:28:12.126Z,8.10
2019-03-30T09:30:48.814Z,9.13
2019-03-30T09:33:35.731Z,9.37
2019-03-30T09:36:11.321Z,9.37
2019-03-30T09:38:49.272Z,8.33
2019-03-30T09:41:26.499Z,8.37
2019-03-30T09:44:03.280Z,9.17
2019-03-30T09:46:39.011Z,8.13
2019-03-30T09:49:14.344Z,9.00
2019-03-30T09:51:49.499Z,10.45
2019-03-30T09:54:25.518Z,10.20
2019-03-30T09:57:01.701Z,10.82
2019-03-30T09:59:39.591Z,9.60
2019-03-30T10:02:16.933Z,10.40
2019-03-30T10:04:54.156Z,10.33
2019-03-30T10:07:30.015Z,9.20
2019-03-30T10:10:12.138Z,9.27
2019-03-30T10:12:47.854Z,9.17
2019-03-30T10:15:23.021Z,8.47
2019-03-30T10:17:59.925Z,8.93
2019-03-30T10:20:36.158Z,8.90
2019-03-30T10:23:10.739Z,8.60
2019-03-30T10:25:49.894Z,8.07
2019-03-30T10:28:26.748Z,9.07
2019-03-30T10:31:01.870Z,8.90
2019-03-30T10:33:39.553Z,8.93
2019-03-30T10:36:14.706Z,8.67
2019-03-30T10:38:53.655Z,9.17
2019-03-30T10:41:30.329Z,8.53
2019-03-30T10:44:05.695Z,9.45
2019-03-30T10:46:43.220Z,8.70
2019-03-30T10:49:26.554Z,7.93
2019-03-30T10:52:07.888Z,7.20
2019-03-30T10:54:52.772Z,6.97
2019-03-30T10:57:33.179Z,8.03
2019-03-30T11:00:49.239Z,8.60
2019-03-30T11:03:30.467Z,7.73
2019-03-30T11:06:08.603Z,8.13
2019-03-30T11:08:44.930Z,7.27
2019-03-30T11:11:29.210Z,8.30
2019-03-30T11:14:07.833Z,7.73
2019-03-30T11:16:53.005Z,8.47
2019-03-30T11:19:38.570Z,8.10
2019-03-30T11:22:21.459Z,7.93
2019-03-30T11:25:07.967Z,7.53
2019-03-30T11:27:56.738Z,8.00
2019-03-30T11:30:36.247Z,8.68
2019-03-30T11:33:12.389Z,7.87
2019-03-30T11:35:49.891Z,8.93
2019-03-30T11:38:26.331Z,8.07
2019-03-30T11:41:04.355Z,8.60
2019-03-30T11:43:45.442Z,8.13
2019-03-30T11:46:20.820Z,8.10
2019-03-30T11:48:57.233Z,8.17
2019-03-30T11:51:32.326Z,7.40
2019-03-30T11:54:11.387Z,7.27
2019-03-30T11:56:46.098Z,7.33
2019-03-30T11:59:22.794Z,7.93
2019-03-30T12:01:58.084Z,6.97
2019-03-30T12:04:33.564Z,6.77
2019-03-30T12:07:09.913Z,6.80
2019-03-30T12:09:47.593Z,6.43
2019-03-30T12:12:23.449Z,6.40
2019-03-30T12:15:06.358Z,7.70
2019-03-30T12:17:42.570Z,7.40
2019-03-30T12:20:17.503Z,7.40
2019-03-30T12:22:52.411Z,7.70
2019-03-30T12:25:35.480Z,6.67
2019-03-30T12:28:12.767Z,7.47
2019-03-30T12:30:50.688Z,7.63
2019-03-30T12:33:26.888Z,7.77
2019-03-30T12:36:04.776Z,8.00
2019-03-30T12:38:42.227Z,8.07
2019-03-30T12:41:19.490Z,8.23
2019-03-30T12:43:55.753Z,6.77
2019-03-30T12:46:31.422Z,7.73
2019-03-30T12:49:06.427Z,7.70
2019-03-30T12:51:43.664Z,7.90
2019-03-30T12:54:24.196Z,7.80
2019-03-30T12:57:00.290Z,8.38
2019-03-30T12:59:37.163Z,7.30
2019-03-30T13:02:12.192Z,7.27
2019-03-30T13:04:47.174Z,7.47
2019-03-30T13:07:23.507Z,8.00
2019-03-30T13:09:59.006Z,7.80
2019-03-30T13:12:33.655Z,6.83
2019-03-30T13:15:09.735Z,7.83
2019-03-30T13:17:47.703Z,6.80
2019-03-30T13:20:26.229Z,6.93
2019-03-30T13:23:02.109Z,7.68
2019-03-30T13:25:39.365Z,7.50
2019-03-30T13:28:16.604Z,7.60
2019-03-30T13:30:54.457Z,7.70
2019-03-30T13:33:30.525Z,7.57
2019-03-30T13:36:06.036Z,8.20
2019-03-30T13:38:40.978Z,8.63
2019-03-30T13:41:16.273Z,8.17
2019-03-30T13:43:51.321Z,7.50
2019-03-30T13:46:34.841Z,8.97
2019-03-30T13:49:11.752Z,7.57
2019-03-30T13:51:48.217Z,8.97
2019-03-30T13:54:22.936Z,8.40
2019-03-30T13:56:57.657Z,8.43
2019-03-30T13:59:33.826Z,8.00
2019-03-30T14:02:09.545Z,9.03
2019-03-30T14:04:44.836Z,8.30
2019-03-30T14:07:20.580Z,8.70
2019-03-30T14:09:55.625Z,8.43
2019-03-30T14:12:31.212Z,8.50
2019-03-30T14:15:09.356Z,8.57
2019-03-30T14:19:15.948Z,9.32
2019-03-30T14:21:51.827Z,9.67
2019-03-30T14:24:30.164Z,8.87
2019-03-30T14:27:05.759Z,9.27
2019-03-30T14:29:43.275Z,9.33
2019-03-30T14:32:18.047Z,8.70
2019-03-30T14:34:55.883Z,10.45
2019-03-30T14:37:34.599Z,9.30
2019-03-30T14:40:11.279Z,10.07
2019-03-30T14:42:46.271Z,9.13
2019-03-30T14:45:25.929Z,9.77
2019-03-30T14:48:05.911Z,9.30
2019-03-30T14:50:40.906Z,9.27
2019-03-30T14:53:17.437Z,9.87
2019-03-30T14:55:53.598Z,8.97
2019-03-30T14:58:28.288Z,8.60
2019-03-30T15:01:05.346Z,8.37
2019-03-30T15:03:41.572Z,8.00
2019-03-30T15:06:17.075Z,9.17
2019-03-30T15:09:07.690Z,8.30
2019-03-30T15:11:43.408Z,9.93
2019-03-30T15:14:18.268Z,8.57
2019-03-30T15:16:53.959Z,9.03
2019-03-30T15:19:29.803Z,9.00
2019-03-30T15:22:06.829Z,8.37
2019-03-30T15:24:43.082Z,9.70
2019-03-30T15:27:17.695Z,8.83
2019-03-30T15:29:53.459Z,8.70
2019-03-30T15:32:29.320Z,8.07
2019-03-30T15:35:08.731Z,8.10
2019-03-30T15:37:44.627Z,8.37
2019-03-30T15:40:19.900Z,9.83
2019-03-30T15:42:57.820Z,8.80
2019-03-30T15:45:35.877Z,9.57
2019-03-30T15:48:11.596Z,9.20
2019-03-30T15:50:46.409Z,9.33
2019-03-30T15:53:22.060Z,10.47
2019-03-30T15:55:57.604Z,10.17
2019-03-30T15:58:33.174Z,9.88
2019-03-30T16:01:08.307Z,9.40
2019-03-30T16:03:43.454Z,10.23
2019-03-30T16:06:19.456Z,9.38
2019-03-30T16:08:56.650Z,9.27
2019-03-30T16:11:32.159Z,9.23
2019-03-30T16:14:08.249Z,9.60
2019-03-30T16:16:43.904Z,9.17
2019-03-30T16:19:19.491Z,9.57
2019-03-30T16:21:55.084Z,9.77
2019-03-30T16:24:31.538Z,9.47
2019-03-30T16:27:09.062Z,8.97
2019-03-30T16:29:45.890Z,8.70
2019-03-30T16:32:21.103Z,9.43
2019-03-30T16:34:55.854Z,9.60
2019-03-30T16:37:31.579Z,8.80
2019-03-30T16:40:07.039Z,8.43
2019-03-30T16:42:43.348Z,8.43
2019-03-30T16:45:18.356Z,8.27
2019-03-30T16:47:55.998Z,8.33
2019-03-30T16:50:33.148Z,8.10
2019-03-30T16:53:15.779Z,8.77
2019-03-30T16:55:52.770Z,8.85
2019-03-30T16:58:30.866Z,7.70
2019-03-30T17:01:07.561Z,8.80
2019-03-30T17:03:44.065Z,9.27
2019-03-30T17:06:20.447Z,8.80
2019-03-30T17:08:55.663Z,8.67
2019-03-30T17:11:31.543Z,9.03
2019-03-30T17:14:06.909Z,8.40
2019-03-30T17:16:44.268Z,8.37
2019-03-30T17:19:23.173Z,8.40
2019-03-30T17:21:58.880Z,8.23
2019-03-30T17:24:37.797Z,8.63
2019-03-30T17:27:13.296Z,9.23
2019-03-30T17:29:48.313Z,8.57
2019-03-30T17:32:26.026Z,8.73
2019-03-30T17:35:03.008Z,9.00
2019-03-30T17:37:39.000Z,9.23
2019-03-30T17:40:14.529Z,8.00
2019-03-30T17:42:50.146Z,8.60
2019-03-30T17:45:28.257Z,8.57
2019-03-30T17:48:04.992Z,8.80
2019-03-30T17:50:41.720Z,8.90
2019-03-30T17:53:23.765Z,8.60
2019-03-30T17:56:02.026Z,8.60
2019-03-30T17:58:38.497Z,8.30
2019-03-30T18:01:17.104Z,9.10
2019-03-30T18:03:53.621Z,8.27
2019-03-30T18:06:36.008Z,9.03
2019-03-30T18:09:18.309Z,7.90
2019-03-30T18:11:57.251Z,8.23
2019-03-30T18:14:36.127Z,7.40
2019-03-30T18:17:14.521Z,6.30
2019-03-30T18:20:05.437Z,7.43
2019-03-30T18:22:44.012Z,7.80
2019-03-30T18:25:33.021Z,8.03
2019-03-30T18:28:08.952Z,8.70
2019-03-30T18:30:47.983Z,8.27
2019-03-30T18:33:25.975Z,8.37
2019-03-30T18:36:02.614Z,17.70
2019-03-30T18:38:41.820Z,8.83
2019-03-30T18:41:21.475Z,9.50
2019-03-30T18:43:57.240Z,9.37
2019-03-30T18:46:33.894Z,8.17
2019-03-30T18:49:12.069Z,8.07
2019-03-30T18:51:51.080Z,8.17
2019-03-30T18:54:31.501Z,7.70
2019-03-30T18:57:11.215Z,7.87
2019-03-30T18:59:50.296Z,7.70
2019-03-30T19:02:25.981Z,8.30
2019-03-30T19:05:03.846Z,8.10
2019-03-30T19:07:41.807Z,7.77
2019-03-30T19:10:16.565Z,7.90
2019-03-30T19:12:53.950Z,8.10
2019-03-30T19:15:30.148Z,9.07
2019-03-30T19:18:06.300Z,8.37
2019-03-30T19:20:42.313Z,9.93
2019-03-30T19:23:17.218Z,9.33
2019-03-30T19:25:54.484Z,8.57
2019-03-30T19:28:30.063Z,10.23
2019-03-30T19:31:12.425Z,15.83
2019-03-30T19:33:50.558Z,13.30
2019-03-30T19:36:27.799Z,11.57
2019-03-30T19:39:04.170Z,13.63
2019-03-30T19:41:40.683Z,13.53
2019-03-30T19:44:16.128Z,10.63
2019-03-30T19:46:51.033Z,12.07
2019-03-30T19:49:29.944Z,14.77
2019-03-30T19:52:06.823Z,13.33
2019-03-30T19:54:43.085Z,13.50
2019-03-30T19:57:19.393Z,13.35
2019-03-30T19:59:55.348Z,13.25
2019-03-30T20:02:31.959Z,12.23
2019-03-30T20:05:08.853Z,11.13
2019-03-30T20:07:43.872Z,12.30
2019-03-30T20:10:23.683Z,12.47
2019-03-30T20:13:00.086Z,14.40
2019-03-30T20:15:37.641Z,12.57
2019-03-30T20:18:15.013Z,13.37
2019-03-30T20:20:49.814Z,12.90
2019-03-30T20:23:27.839Z,14.47
2019-03-30T20:26:05.071Z,13.77
2019-03-30T20:28:47.346Z,14.00
2019-03-30T20:31:23.143Z,14.90
2019-03-30T20:34:01.938Z,13.37
2019-03-30T20:36:38.664Z,12.53
2019-03-30T20:39:14.919Z,13.33
2019-03-30T20:41:50.953Z,13.50
2019-03-30T20:44:30.095Z,13.75
2019-03-30T20:47:05.906Z,12.20
2019-03-30T20:49:43.706Z,13.33
2019-03-30T20:52:19.391Z,13.62
2019-03-30T20:54:54.204Z,14.27
2019-03-30T20:57:31.213Z,13.03
2019-03-30T21:00:08.284Z,13.90
2019-03-30T21:02:44.754Z,13.03
2019-03-30T21:05:20.029Z,13.60
2019-03-30T21:07:55.163Z,13.30
2019-03-30T21:10:29.932Z,13.30
2019-03-30T21:13:05.799Z,14.17
2019-03-30T21:15:43.045Z,15.07
2019-03-30T21:18:18.977Z,14.07
2019-03-30T21:20:56.809Z,13.10
2019-03-30T21:23:31.476Z,14.17
2019-03-30T21:26:09.105Z,13.83
2019-03-30T21:28:45.249Z,14.10
2019-03-30T21:31:21.298Z,14.43
2019-03-30T21:33:56.492Z,15.07
2019-03-30T21:36:32.552Z,15.23
2019-03-30T21:39:11.371Z,15.23
2019-03-30T21:41:47.164Z,16.30
2019-03-30T21:44:23.034Z,15.53
2019-03-30T21:46:57.901Z,15.00
2019-03-30T21:49:32.527Z,15.00
2019-03-30T21:52:07.923Z,16.70
2019-03-30T21:54:42.635Z,16.07
2019-03-30T21:57:18.844Z,15.80
2019-03-30T22:00:08.767Z,14.20
2019-03-30T22:02:45.989Z,15.00
2019-03-30T22:05:21.309Z,15.03
2019-03-30T22:07:57.171Z,15.63
2019-03-30T22:10:34.524Z,14.33
2019-03-30T22:13:10.489Z,15.37
2019-03-30T22:15:45.511Z,14.83
2019-03-30T22:18:22.531Z,15.47
2019-03-30T22:20:58.158Z,14.57
2019-03-30T22:23:34.451Z,17.37
2019-03-30T22:26:13.299Z,17.23
2019-03-30T22:28:48.740Z,17.20
2019-03-30T22:31:25.303Z,16.90
2019-03-30T22:33:59.856Z,18.23
2019-03-30T22:36:36.765Z,17.97
2019-03-30T22:39:12.368Z,17.00
2019-03-30T22:41:51.138Z,15.13
2019-03-30T22:44:25.715Z,18.98
2019-03-30T22:47:00.887Z,17.60
2019-03-30T22:49:36.063Z,17.63
2019-03-30T22:52:11.243Z,17.27
2019-03-30T22:54:46.850Z,16.60
2019-03-30T22:57:24.172Z,16.57
2019-03-30T23:00:01.023Z,15.23
2019-03-30T23:02:39.118Z,19.40
2019-03-30T23:05:14.675Z,19.17
2019-03-30T23:07:51.546Z,18.33
2019-03-30T23:10:28.576Z,18.33
2019-03-30T23:13:04.209Z,18.17
2019-03-30T23:15:41.636Z,17.40
2019-03-30T23:18:17.663Z,19.60
2019-03-30T23:20:56.109Z,19.10
2019-03-30T23:23:31.606Z,19.53
2019-03-30T23:26:08.330Z,18.90
2019-03-30T23:28:43.785Z,16.90
2019-03-30T23:31:19.287Z,16.83
2019-03-30T23:33:53.913Z,18.13
2019-03-30T23:36:28.946Z,19.83
2019-03-30T23:39:06.318Z,18.43
2019-03-30T23:41:41.504Z,22.83
2019-03-30T23:44:16.741Z,21.67
2019-03-30T23:46:52.434Z,21.53
2019-03-30T23:49:27.391Z,23.67
2019-03-30T23:52:02.172Z,22.58
2019-03-30T23:54:37.512Z,24.03
2019-03-30T23:57:13.318Z,23.13
2019-03-30T23:59:48.047Z,25.25
